sensor_id;sensor_type;location;lat;lon;timestamp;P1;durP1;ratioP1;P2;durP2;ratioP2
37267;SDS011;23154;52.542;13.362;2023-07-22T00:00:55;17.02;;;7.47;;
37267;SDS011;23154;52.542;13.362;2023-07-22T00:03:21;18.80;;;7.82;;
37267;SDS011;23154;52.542;13.362;2023-07-22T00:05:48;17.85;;;8.30;;
37267;SDS011;23154;52.542;13.362;2023-07-22T00:08:15;18.63;;;7.30;;
37267;SDS011;23154;52.542;13.362;2023-07-22T00:10:41;17.55;;;7.53;;
37267;SDS011;23154;52.542;13.362;2023-07-22T00:13:08;17.27;;;7.32;;
37267;SDS011;23154;52.542;13.362;2023-07-22T00:15:34;19.23;;;7.30;;
37267;SDS011;23154;52.542;13.362;2023-07-22T00:18:00;18.45;;;7.90;;
37267;SDS011;23154;52.542;13.362;2023-07-22T00:20:26;17.50;;;7.97;;
37267;SDS011;23154;52.542;13.362;2023-07-22T00:22:54;18.73;;;8.57;;
37267;SDS011;23154;52.542;13.362;2023-07-22T00:25:21;16.73;;;7.20;;
37267;SDS011;23154;52.542;13.362;2023-07-22T00:27:47;21.65;;;10.80;;
37267;SDS011;23154;52.542;13.362;2023-07-22T00:30:14;15.63;;;7.22;;
37267;SDS011;23154;52.542;13.362;2023-07-22T00:32:40;17.50;;;8.07;;
37267;SDS011;23154;52.542;13.362;2023-07-22T00:35:06;19.70;;;7.85;;
37267;SDS011;23154;52.542;13.362;2023-07-22T00:37:32;17.50;;;7.97;;
37267;SDS011;23154;52.542;13.362;2023-07-22T00:39:58;17.55;;;7.75;;
37267;SDS011;23154;52.542;13.362;2023-07-22T00:42:25;15.57;;;7.63;;
37267;SDS011;23154;52.542;13.362;2023-07-22T00:44:52;18.48;;;8.20;;
37267;SDS011;23154;52.542;13.362;2023-07-22T00:47:19;20.35;;;7.45;;
37267;SDS011;23154;52.542;13.362;2023-07-22T00:49:47;16.48;;;7.05;;
37267;SDS011;23154;52.542;13.362;2023-07-22T00:52:13;17.25;;;7.45;;
37267;SDS011;23154;52.542;13.362;2023-07-22T00:54:41;17.67;;;6.85;;
37267;SDS011;23154;52.542;13.362;2023-07-22T00:57:07;18.42;;;7.57;;
37267;SDS011;23154;52.542;13.362;2023-07-22T00:59:34;16.05;;;7.57;;
37267;SDS011;23154;52.542;13.362;2023-07-22T01:02:00;16.90;;;7.57;;
37267;SDS011;23154;52.542;13.362;2023-07-22T01:04:27;17.42;;;8.32;;
37267;SDS011;23154;52.542;13.362;2023-07-22T01:06:54;20.73;;;8.43;;
37267;SDS011;23154;52.542;13.362;2023-07-22T01:09:21;18.52;;;8.45;;
37267;SDS011;23154;52.542;13.362;2023-07-22T01:11:48;20.70;;;9.23;;
37267;SDS011;23154;52.542;13.362;2023-07-22T01:14:14;17.95;;;8.75;;
37267;SDS011;23154;52.542;13.362;2023-07-22T01:16:40;19.50;;;8.65;;
37267;SDS011;23154;52.542;13.362;2023-07-22T01:19:06;17.95;;;8.85;;
37267;SDS011;23154;52.542;13.362;2023-07-22T01:21:33;16.58;;;8.00;;
37267;SDS011;23154;52.542;13.362;2023-07-22T01:24:00;17.95;;;8.50;;
37267;SDS011;23154;52.542;13.362;2023-07-22T01:26:26;18.63;;;8.55;;
37267;SDS011;23154;52.542;13.362;2023-07-22T01:29:01;18.83;;;8.43;;
37267;SDS011;23154;52.542;13.362;2023-07-22T01:31:28;22.02;;;9.07;;
37267;SDS011;23154;52.542;13.362;2023-07-22T01:33:54;19.10;;;8.90;;
37267;SDS011;23154;52.542;13.362;2023-07-22T01:36:24;19.77;;;8.60;;
37267;SDS011;23154;52.542;13.362;2023-07-22T01:38:50;20.80;;;8.90;;
37267;SDS011;23154;52.542;13.362;2023-07-22T01:41:16;18.95;;;9.20;;
37267;SDS011;23154;52.542;13.362;2023-07-22T01:43:43;20.23;;;9.43;;
37267;SDS011;23154;52.542;13.362;2023-07-22T01:46:09;18.38;;;8.75;;
37267;SDS011;23154;52.542;13.362;2023-07-22T01:48:35;18.15;;;8.60;;
37267;SDS011;23154;52.542;13.362;2023-07-22T01:51:02;22.15;;;10.02;;
37267;SDS011;23154;52.542;13.362;2023-07-22T01:53:28;17.98;;;9.15;;
37267;SDS011;23154;52.542;13.362;2023-07-22T01:55:54;19.15;;;8.90;;
37267;SDS011;23154;52.542;13.362;2023-07-22T01:58:20;19.23;;;9.07;;
37267;SDS011;23154;52.542;13.362;2023-07-22T02:00:50;23.80;;;9.18;;
37267;SDS011;23154;52.542;13.362;2023-07-22T02:03:16;22.05;;;8.63;;
37267;SDS011;23154;52.542;13.362;2023-07-22T02:05:42;19.75;;;7.90;;
37267;SDS011;23154;52.542;13.362;2023-07-22T02:08:08;19.48;;;8.35;;
37267;SDS011;23154;52.542;13.362;2023-07-22T02:10:35;17.33;;;8.05;;
37267;SDS011;23154;52.542;13.362;2023-07-22T02:13:01;18.88;;;7.70;;
37267;SDS011;23154;52.542;13.362;2023-07-22T02:15:29;16.98;;;8.07;;
37267;SDS011;23154;52.542;13.362;2023-07-22T02:17:55;20.63;;;8.57;;
37267;SDS011;23154;52.542;13.362;2023-07-22T02:20:21;20.35;;;7.70;;
37267;SDS011;23154;52.542;13.362;2023-07-22T02:22:47;16.08;;;8.00;;
37267;SDS011;23154;52.542;13.362;2023-07-22T02:25:13;18.20;;;7.50;;
37267;SDS011;23154;52.542;13.362;2023-07-22T02:27:40;18.45;;;7.25;;
37267;SDS011;23154;52.542;13.362;2023-07-22T02:30:06;16.13;;;7.35;;
37267;SDS011;23154;52.542;13.362;2023-07-22T02:32:39;15.38;;;6.72;;
37267;SDS011;23154;52.542;13.362;2023-07-22T02:35:08;20.30;;;6.78;;
37267;SDS011;23154;52.542;13.362;2023-07-22T02:37:37;18.33;;;6.78;;
37267;SDS011;23154;52.542;13.362;2023-07-22T02:40:03;15.25;;;6.20;;
37267;SDS011;23154;52.542;13.362;2023-07-22T02:42:38;15.60;;;7.18;;
37267;SDS011;23154;52.542;13.362;2023-07-22T02:45:04;16.42;;;6.32;;
37267;SDS011;23154;52.542;13.362;2023-07-22T02:47:33;16.92;;;6.85;;
37267;SDS011;23154;52.542;13.362;2023-07-22T02:50:02;14.80;;;6.13;;
37267;SDS011;23154;52.542;13.362;2023-07-22T02:52:29;16.05;;;7.00;;
37267;SDS011;23154;52.542;13.362;2023-07-22T02:55:08;16.63;;;6.88;;
37267;SDS011;23154;52.542;13.362;2023-07-22T02:57:38;14.45;;;5.95;;
37267;SDS011;23154;52.542;13.362;2023-07-22T03:00:05;16.95;;;5.90;;
37267;SDS011;23154;52.542;13.362;2023-07-22T03:02:36;16.33;;;5.55;;
37267;SDS011;23154;52.542;13.362;2023-07-22T03:05:03;16.88;;;6.60;;
37267;SDS011;23154;52.542;13.362;2023-07-22T03:07:32;20.10;;;6.53;;
37267;SDS011;23154;52.542;13.362;2023-07-22T03:09:58;14.27;;;5.78;;
37267;SDS011;23154;52.542;13.362;2023-07-22T03:12:24;14.20;;;6.07;;
37267;SDS011;23154;52.542;13.362;2023-07-22T03:14:50;18.92;;;6.18;;
37267;SDS011;23154;52.542;13.362;2023-07-22T03:17:18;16.15;;;6.28;;
37267;SDS011;23154;52.542;13.362;2023-07-22T03:19:44;15.43;;;6.75;;
37267;SDS011;23154;52.542;13.362;2023-07-22T03:22:13;15.45;;;6.28;;
37267;SDS011;23154;52.542;13.362;2023-07-22T03:24:39;15.95;;;6.15;;
37267;SDS011;23154;52.542;13.362;2023-07-22T03:27:05;18.17;;;6.03;;
37267;SDS011;23154;52.542;13.362;2023-07-22T03:29:31;17.90;;;6.63;;
37267;SDS011;23154;52.542;13.362;2023-07-22T03:31:57;16.05;;;6.05;;
37267;SDS011;23154;52.542;13.362;2023-07-22T03:34:25;16.27;;;6.47;;
37267;SDS011;23154;52.542;13.362;2023-07-22T03:36:51;14.88;;;6.10;;
37267;SDS011;23154;52.542;13.362;2023-07-22T03:39:17;16.15;;;6.15;;
37267;SDS011;23154;52.542;13.362;2023-07-22T03:41:43;15.10;;;6.40;;
37267;SDS011;23154;52.542;13.362;2023-07-22T03:44:09;15.57;;;6.47;;
37267;SDS011;23154;52.542;13.362;2023-07-22T03:46:35;16.33;;;6.70;;
37267;SDS011;23154;52.542;13.362;2023-07-22T03:49:01;19.88;;;6.05;;
37267;SDS011;23154;52.542;13.362;2023-07-22T03:51:27;18.17;;;6.78;;
37267;SDS011;23154;52.542;13.362;2023-07-22T03:53:53;17.42;;;6.65;;
37267;SDS011;23154;52.542;13.362;2023-07-22T03:56:19;14.68;;;6.38;;
37267;SDS011;23154;52.542;13.362;2023-07-22T03:58:45;14.77;;;6.30;;
37267;SDS011;23154;52.542;13.362;2023-07-22T04:01:12;18.35;;;7.07;;
37267;SDS011;23154;52.542;13.362;2023-07-22T04:03:38;17.70;;;7.43;;
37267;SDS011;23154;52.542;13.362;2023-07-22T04:06:05;18.08;;;6.70;;
37267;SDS011;23154;52.542;13.362;2023-07-22T04:08:31;16.30;;;7.03;;
37267;SDS011;23154;52.542;13.362;2023-07-22T04:10:57;16.48;;;6.65;;
37267;SDS011;23154;52.542;13.362;2023-07-22T04:13:24;16.30;;;6.88;;
37267;SDS011;23154;52.542;13.362;2023-07-22T04:15:50;16.88;;;6.70;;
37267;SDS011;23154;52.542;13.362;2023-07-22T04:18:16;16.30;;;6.13;;
37267;SDS011;23154;52.542;13.362;2023-07-22T04:20:43;15.93;;;6.55;;
37267;SDS011;23154;52.542;13.362;2023-07-22T04:23:09;16.00;;;6.28;;
37267;SDS011;23154;52.542;13.362;2023-07-22T04:25:39;15.02;;;5.70;;
37267;SDS011;23154;52.542;13.362;2023-07-22T04:28:06;16.67;;;6.20;;
37267;SDS011;23154;52.542;13.362;2023-07-22T04:30:33;14.30;;;5.60;;
37267;SDS011;23154;52.542;13.362;2023-07-22T04:32:59;16.85;;;6.05;;
37267;SDS011;23154;52.542;13.362;2023-07-22T04:35:25;15.55;;;6.38;;
37267;SDS011;23154;52.542;13.362;2023-07-22T04:37:51;17.55;;;6.32;;
37267;SDS011;23154;52.542;13.362;2023-07-22T04:40:18;15.18;;;5.70;;
37267;SDS011;23154;52.542;13.362;2023-07-22T04:42:44;18.40;;;6.03;;
37267;SDS011;23154;52.542;13.362;2023-07-22T04:45:11;14.18;;;5.35;;
37267;SDS011;23154;52.542;13.362;2023-07-22T04:47:37;16.30;;;5.90;;
37267;SDS011;23154;52.542;13.362;2023-07-22T04:50:04;13.80;;;5.25;;
37267;SDS011;23154;52.542;13.362;2023-07-22T04:52:34;17.55;;;5.68;;
37267;SDS011;23154;52.542;13.362;2023-07-22T04:55:00;16.38;;;5.00;;
37267;SDS011;23154;52.542;13.362;2023-07-22T04:57:30;12.68;;;4.63;;
37267;SDS011;23154;52.542;13.362;2023-07-22T04:59:56;15.88;;;5.32;;
37267;SDS011;23154;52.542;13.362;2023-07-22T05:02:22;17.20;;;5.72;;
37267;SDS011;23154;52.542;13.362;2023-07-22T05:04:48;15.20;;;5.20;;
37267;SDS011;23154;52.542;13.362;2023-07-22T05:07:14;15.23;;;5.63;;
37267;SDS011;23154;52.542;13.362;2023-07-22T05:09:40;17.50;;;6.75;;
37267;SDS011;23154;52.542;13.362;2023-07-22T05:12:06;18.10;;;6.32;;
37267;SDS011;23154;52.542;13.362;2023-07-22T05:14:32;18.95;;;6.70;;
37267;SDS011;23154;52.542;13.362;2023-07-22T05:16:58;17.75;;;6.22;;
37267;SDS011;23154;52.542;13.362;2023-07-22T05:19:24;18.00;;;5.95;;
37267;SDS011;23154;52.542;13.362;2023-07-22T05:21:50;19.52;;;6.78;;
37267;SDS011;23154;52.542;13.362;2023-07-22T05:24:16;18.08;;;6.82;;
37267;SDS011;23154;52.542;13.362;2023-07-22T05:26:43;14.93;;;6.10;;
37267;SDS011;23154;52.542;13.362;2023-07-22T05:29:09;14.68;;;5.63;;
37267;SDS011;23154;52.542;13.362;2023-07-22T05:31:35;16.80;;;6.38;;
37267;SDS011;23154;52.542;13.362;2023-07-22T05:34:01;15.23;;;6.03;;
37267;SDS011;23154;52.542;13.362;2023-07-22T05:36:27;18.05;;;7.10;;
37267;SDS011;23154;52.542;13.362;2023-07-22T05:38:53;18.50;;;6.63;;
37267;SDS011;23154;52.542;13.362;2023-07-22T05:41:19;17.38;;;6.57;;
37267;SDS011;23154;52.542;13.362;2023-07-22T05:43:45;16.88;;;7.60;;
37267;SDS011;23154;52.542;13.362;2023-07-22T05:46:12;18.27;;;7.60;;
37267;SDS011;23154;52.542;13.362;2023-07-22T05:48:38;19.70;;;7.82;;
37267;SDS011;23154;52.542;13.362;2023-07-22T05:51:04;18.75;;;7.53;;
37267;SDS011;23154;52.542;13.362;2023-07-22T05:53:31;19.40;;;7.10;;
37267;SDS011;23154;52.542;13.362;2023-07-22T05:55:57;21.00;;;7.93;;
37267;SDS011;23154;52.542;13.362;2023-07-22T05:58:23;21.08;;;6.90;;
37267;SDS011;23154;52.542;13.362;2023-07-22T06:00:50;18.67;;;7.45;;
37267;SDS011;23154;52.542;13.362;2023-07-22T06:03:17;19.13;;;7.50;;
37267;SDS011;23154;52.542;13.362;2023-07-22T06:05:43;29.20;;;8.85;;
37267;SDS011;23154;52.542;13.362;2023-07-22T06:08:09;21.52;;;8.05;;
37267;SDS011;23154;52.542;13.362;2023-07-22T06:10:35;20.67;;;7.43;;
37267;SDS011;23154;52.542;13.362;2023-07-22T06:13:03;23.63;;;8.05;;
37267;SDS011;23154;52.542;13.362;2023-07-22T06:15:29;23.35;;;8.20;;
37267;SDS011;23154;52.542;13.362;2023-07-22T06:17:55;20.63;;;7.95;;
37267;SDS011;23154;52.542;13.362;2023-07-22T06:20:21;22.00;;;8.45;;
37267;SDS011;23154;52.542;13.362;2023-07-22T06:22:47;23.35;;;7.00;;
37267;SDS011;23154;52.542;13.362;2023-07-22T06:25:13;23.90;;;7.60;;
37267;SDS011;23154;52.542;13.362;2023-07-22T06:27:39;20.75;;;6.90;;
37267;SDS011;23154;52.542;13.362;2023-07-22T06:30:05;20.00;;;8.13;;
37267;SDS011;23154;52.542;13.362;2023-07-22T06:32:31;21.52;;;7.28;;
37267;SDS011;23154;52.542;13.362;2023-07-22T06:34:57;18.33;;;6.50;;
37267;SDS011;23154;52.542;13.362;2023-07-22T06:37:23;18.85;;;6.95;;
37267;SDS011;23154;52.542;13.362;2023-07-22T06:39:50;19.67;;;6.97;;
37267;SDS011;23154;52.542;13.362;2023-07-22T06:42:16;18.52;;;7.28;;
37267;SDS011;23154;52.542;13.362;2023-07-22T06:44:42;19.40;;;6.95;;
37267;SDS011;23154;52.542;13.362;2023-07-22T06:47:08;17.67;;;6.55;;
37267;SDS011;23154;52.542;13.362;2023-07-22T06:49:35;19.58;;;7.38;;
37267;SDS011;23154;52.542;13.362;2023-07-22T06:52:01;21.73;;;6.68;;
37267;SDS011;23154;52.542;13.362;2023-07-22T06:54:27;17.55;;;6.53;;
37267;SDS011;23154;52.542;13.362;2023-07-22T06:56:53;20.35;;;6.10;;
37267;SDS011;23154;52.542;13.362;2023-07-22T06:59:19;18.38;;;6.88;;
37267;SDS011;23154;52.542;13.362;2023-07-22T07:01:45;18.80;;;5.72;;
37267;SDS011;23154;52.542;13.362;2023-07-22T07:04:11;19.63;;;5.13;;
37267;SDS011;23154;52.542;13.362;2023-07-22T07:06:37;17.23;;;4.88;;
37267;SDS011;23154;52.542;13.362;2023-07-22T07:09:03;16.88;;;5.07;;
37267;SDS011;23154;52.542;13.362;2023-07-22T07:11:30;11.60;;;4.28;;
37267;SDS011;23154;52.542;13.362;2023-07-22T07:13:56;12.90;;;4.10;;
37267;SDS011;23154;52.542;13.362;2023-07-22T07:16:26;14.30;;;4.70;;
37267;SDS011;23154;52.542;13.362;2023-07-22T07:18:52;15.93;;;4.45;;
37267;SDS011;23154;52.542;13.362;2023-07-22T07:21:20;14.45;;;4.70;;
37267;SDS011;23154;52.542;13.362;2023-07-22T07:23:46;14.45;;;4.40;;
37267;SDS011;23154;52.542;13.362;2023-07-22T07:26:12;20.38;;;4.90;;
37267;SDS011;23154;52.542;13.362;2023-07-22T07:28:38;17.42;;;5.13;;
37267;SDS011;23154;52.542;13.362;2023-07-22T07:31:04;15.10;;;4.68;;
37267;SDS011;23154;52.542;13.362;2023-07-22T07:33:30;16.23;;;4.05;;
37267;SDS011;23154;52.542;13.362;2023-07-22T07:35:56;15.00;;;4.50;;
37267;SDS011;23154;52.542;13.362;2023-07-22T07:38:22;16.08;;;4.88;;
37267;SDS011;23154;52.542;13.362;2023-07-22T07:41:06;16.80;;;4.50;;
37267;SDS011;23154;52.542;13.362;2023-07-22T07:43:40;16.77;;;6.05;;
37267;SDS011;23154;52.542;13.362;2023-07-22T07:46:22;18.90;;;4.88;;
37267;SDS011;23154;52.542;13.362;2023-07-22T07:48:49;15.05;;;4.75;;
37267;SDS011;23154;52.542;13.362;2023-07-22T07:51:16;14.35;;;4.30;;
37267;SDS011;23154;52.542;13.362;2023-07-22T07:53:43;15.73;;;4.43;;
37267;SDS011;23154;52.542;13.362;2023-07-22T07:56:09;15.20;;;4.00;;
37267;SDS011;23154;52.542;13.362;2023-07-22T07:58:36;14.40;;;4.68;;
37267;SDS011;23154;52.542;13.362;2023-07-22T08:01:04;15.88;;;4.68;;
37267;SDS011;23154;52.542;13.362;2023-07-22T08:03:34;15.65;;;4.63;;
37267;SDS011;23154;52.542;13.362;2023-07-22T08:06:07;16.02;;;4.72;;
37267;SDS011;23154;52.542;13.362;2023-07-22T08:08:33;15.70;;;4.63;;
37267;SDS011;23154;52.542;13.362;2023-07-22T08:13:29;15.00;;;4.60;;
37267;SDS011;23154;52.542;13.362;2023-07-22T08:15:59;13.80;;;4.07;;
37267;SDS011;23154;52.542;13.362;2023-07-22T08:18:25;13.10;;;4.10;;
37267;SDS011;23154;52.542;13.362;2023-07-22T08:20:52;14.65;;;4.07;;
37267;SDS011;23154;52.542;13.362;2023-07-22T08:23:19;16.65;;;4.93;;
37267;SDS011;23154;52.542;13.362;2023-07-22T08:25:45;16.15;;;4.70;;
37267;SDS011;23154;52.542;13.362;2023-07-22T08:28:11;16.58;;;4.78;;
37267;SDS011;23154;52.542;13.362;2023-07-22T08:30:37;13.98;;;4.38;;
37267;SDS011;23154;52.542;13.362;2023-07-22T08:33:09;17.48;;;4.63;;
37267;SDS011;23154;52.542;13.362;2023-07-22T08:35:41;16.38;;;4.60;;
37267;SDS011;23154;52.542;13.362;2023-07-22T08:38:08;15.35;;;4.65;;
37267;SDS011;23154;52.542;13.362;2023-07-22T08:40:38;13.38;;;4.20;;
37267;SDS011;23154;52.542;13.362;2023-07-22T08:43:05;15.60;;;4.63;;
37267;SDS011;23154;52.542;13.362;2023-07-22T08:45:32;14.65;;;4.65;;
37267;SDS011;23154;52.542;13.362;2023-07-22T08:48:10;16.58;;;4.45;;
37267;SDS011;23154;52.542;13.362;2023-07-22T08:53:38;15.95;;;4.75;;
37267;SDS011;23154;52.542;13.362;2023-07-22T08:56:04;15.82;;;4.63;;
37267;SDS011;23154;52.542;13.362;2023-07-22T08:58:30;15.88;;;5.10;;
37267;SDS011;23154;52.542;13.362;2023-07-22T09:00:56;11.82;;;3.90;;
37267;SDS011;23154;52.542;13.362;2023-07-22T09:03:24;15.23;;;4.63;;
37267;SDS011;23154;52.542;13.362;2023-07-22T09:05:50;13.15;;;4.20;;
37267;SDS011;23154;52.542;13.362;2023-07-22T09:08:16;14.38;;;4.18;;
37267;SDS011;23154;52.542;13.362;2023-07-22T09:10:42;15.70;;;4.80;;
37267;SDS011;23154;52.542;13.362;2023-07-22T09:13:08;19.02;;;4.15;;
37267;SDS011;23154;52.542;13.362;2023-07-22T09:15:35;15.77;;;4.72;;
37267;SDS011;23154;52.542;13.362;2023-07-22T09:18:03;13.40;;;4.30;;
37267;SDS011;23154;52.542;13.362;2023-07-22T09:20:29;12.50;;;4.13;;
37267;SDS011;23154;52.542;13.362;2023-07-22T09:22:55;14.07;;;4.45;;
37267;SDS011;23154;52.542;13.362;2023-07-22T09:25:22;12.90;;;3.88;;
37267;SDS011;23154;52.542;13.362;2023-07-22T09:27:50;11.98;;;3.75;;
37267;SDS011;23154;52.542;13.362;2023-07-22T09:32:49;14.15;;;4.25;;
37267;SDS011;23154;52.542;13.362;2023-07-22T09:35:16;13.30;;;4.28;;
37267;SDS011;23154;52.542;13.362;2023-07-22T09:37:42;14.13;;;4.25;;
37267;SDS011;23154;52.542;13.362;2023-07-22T09:40:16;11.82;;;3.70;;
37267;SDS011;23154;52.542;13.362;2023-07-22T09:42:45;12.65;;;3.75;;
37267;SDS011;23154;52.542;13.362;2023-07-22T09:45:12;15.43;;;3.70;;
37267;SDS011;23154;52.542;13.362;2023-07-22T09:47:47;11.05;;;3.63;;
37267;SDS011;23154;52.542;13.362;2023-07-22T09:50:16;9.70;;;2.78;;
37267;SDS011;23154;52.542;13.362;2023-07-22T09:52:46;10.50;;;3.33;;
37267;SDS011;23154;52.542;13.362;2023-07-22T09:55:14;11.85;;;3.35;;
37267;SDS011;23154;52.542;13.362;2023-07-22T09:57:44;15.85;;;3.40;;
37267;SDS011;23154;52.542;13.362;2023-07-22T10:00:11;10.63;;;2.78;;
37267;SDS011;23154;52.542;13.362;2023-07-22T10:02:39;12.75;;;3.78;;
37267;SDS011;23154;52.542;13.362;2023-07-22T10:05:06;10.57;;;3.13;;
37267;SDS011;23154;52.542;13.362;2023-07-22T10:07:34;8.18;;;2.65;;
37267;SDS011;23154;52.542;13.362;2023-07-22T10:10:01;10.18;;;3.08;;
37267;SDS011;23154;52.542;13.362;2023-07-22T10:12:27;11.80;;;3.00;;
37267;SDS011;23154;52.542;13.362;2023-07-22T10:14:53;12.30;;;3.05;;
37267;SDS011;23154;52.542;13.362;2023-07-22T10:17:20;12.45;;;3.40;;
37267;SDS011;23154;52.542;13.362;2023-07-22T10:19:47;8.75;;;3.10;;
37267;SDS011;23154;52.542;13.362;2023-07-22T10:22:13;11.18;;;3.35;;
37267;SDS011;23154;52.542;13.362;2023-07-22T10:24:39;10.38;;;3.60;;
37267;SDS011;23154;52.542;13.362;2023-07-22T10:27:06;8.38;;;2.80;;
37267;SDS011;23154;52.542;13.362;2023-07-22T10:29:33;12.88;;;3.33;;
37267;SDS011;23154;52.542;13.362;2023-07-22T10:31:59;9.77;;;3.15;;
37267;SDS011;23154;52.542;13.362;2023-07-22T10:34:25;9.45;;;3.03;;
37267;SDS011;23154;52.542;13.362;2023-07-22T10:36:51;11.18;;;3.10;;
37267;SDS011;23154;52.542;13.362;2023-07-22T10:39:27;11.75;;;3.60;;
37267;SDS011;23154;52.542;13.362;2023-07-22T10:41:59;9.57;;;3.00;;
37267;SDS011;23154;52.542;13.362;2023-07-22T10:44:26;9.90;;;3.00;;
37267;SDS011;23154;52.542;13.362;2023-07-22T10:46:58;11.82;;;3.25;;
37267;SDS011;23154;52.542;13.362;2023-07-22T10:49:24;13.38;;;3.25;;
37267;SDS011;23154;52.542;13.362;2023-07-22T10:51:56;8.38;;;2.88;;
37267;SDS011;23154;52.542;13.362;2023-07-22T10:54:33;13.32;;;3.03;;
37267;SDS011;23154;52.542;13.362;2023-07-22T10:59:47;9.48;;;3.17;;
37267;SDS011;23154;52.542;13.362;2023-07-22T11:02:24;13.32;;;4.57;;
37267;SDS011;23154;52.542;13.362;2023-07-22T11:04:50;11.65;;;3.55;;
37267;SDS011;23154;52.542;13.362;2023-07-22T11:07:29;12.55;;;3.53;;
37267;SDS011;23154;52.542;13.362;2023-07-22T11:09:55;12.05;;;3.58;;
37267;SDS011;23154;52.542;13.362;2023-07-22T11:12:21;18.55;;;4.40;;
37267;SDS011;23154;52.542;13.362;2023-07-22T11:14:51;9.43;;;3.25;;
37267;SDS011;23154;52.542;13.362;2023-07-22T11:17:18;11.05;;;3.53;;
37267;SDS011;23154;52.542;13.362;2023-07-22T11:19:56;13.00;;;3.78;;
37267;SDS011;23154;52.542;13.362;2023-07-22T11:22:23;11.10;;;3.40;;
37267;SDS011;23154;52.542;13.362;2023-07-22T11:24:49;12.13;;;3.60;;
37267;SDS011;23154;52.542;13.362;2023-07-22T11:27:15;11.75;;;3.90;;
37267;SDS011;23154;52.542;13.362;2023-07-22T11:29:41;11.52;;;3.85;;
37267;SDS011;23154;52.542;13.362;2023-07-22T11:32:14;15.00;;;4.40;;
37267;SDS011;23154;52.542;13.362;2023-07-22T11:34:43;13.55;;;3.95;;
37267;SDS011;23154;52.542;13.362;2023-07-22T11:37:10;15.40;;;3.97;;
37267;SDS011;23154;52.542;13.362;2023-07-22T11:39:36;12.43;;;3.92;;
37267;SDS011;23154;52.542;13.362;2023-07-22T11:42:03;14.57;;;4.55;;
37267;SDS011;23154;52.542;13.362;2023-07-22T11:44:29;16.25;;;4.43;;
37267;SDS011;23154;52.542;13.362;2023-07-22T11:47:00;14.90;;;4.18;;
37267;SDS011;23154;52.542;13.362;2023-07-22T11:49:34;15.77;;;4.38;;
37267;SDS011;23154;52.542;13.362;2023-07-22T11:52:05;12.90;;;4.43;;
37267;SDS011;23154;52.542;13.362;2023-07-22T11:54:36;11.43;;;3.78;;
37267;SDS011;23154;52.542;13.362;2023-07-22T11:57:15;11.90;;;3.70;;
37267;SDS011;23154;52.542;13.362;2023-07-22T11:59:46;12.90;;;3.63;;
37267;SDS011;23154;52.542;13.362;2023-07-22T12:02:19;14.32;;;3.45;;
37267;SDS011;23154;52.542;13.362;2023-07-22T12:05:20;17.58;;;4.28;;
37267;SDS011;23154;52.542;13.362;2023-07-22T12:07:38;11.18;;;3.80;;
37267;SDS011;23154;52.542;13.362;2023-07-22T12:10:06;14.27;;;3.88;;
37267;SDS011;23154;52.542;13.362;2023-07-22T12:12:35;14.10;;;4.40;;
37267;SDS011;23154;52.542;13.362;2023-07-22T12:15:03;14.35;;;4.55;;
37267;SDS011;23154;52.542;13.362;2023-07-22T12:17:29;13.10;;;3.90;;
37267;SDS011;23154;52.542;13.362;2023-07-22T12:19:55;11.73;;;4.03;;
37267;SDS011;23154;52.542;13.362;2023-07-22T12:22:21;12.57;;;3.95;;
37267;SDS011;23154;52.542;13.362;2023-07-22T12:24:47;11.88;;;4.13;;
37267;SDS011;23154;52.542;13.362;2023-07-22T12:27:13;13.15;;;3.58;;
37267;SDS011;23154;52.542;13.362;2023-07-22T12:29:39;10.75;;;3.53;;
37267;SDS011;23154;52.542;13.362;2023-07-22T12:32:05;13.38;;;4.18;;
37267;SDS011;23154;52.542;13.362;2023-07-22T12:34:31;12.30;;;3.67;;
37267;SDS011;23154;52.542;13.362;2023-07-22T12:36:57;13.73;;;4.43;;
37267;SDS011;23154;52.542;13.362;2023-07-22T12:39:23;13.90;;;3.97;;
37267;SDS011;23154;52.542;13.362;2023-07-22T12:41:49;13.65;;;3.72;;
37267;SDS011;23154;52.542;13.362;2023-07-22T12:44:15;17.20;;;5.82;;
37267;SDS011;23154;52.542;13.362;2023-07-22T12:46:41;14.80;;;4.70;;
37267;SDS011;23154;52.542;13.362;2023-07-22T12:49:07;12.60;;;4.38;;
37267;SDS011;23154;52.542;13.362;2023-07-22T12:51:33;12.30;;;3.85;;
37267;SDS011;23154;52.542;13.362;2023-07-22T12:53:59;17.88;;;4.30;;
37267;SDS011;23154;52.542;13.362;2023-07-22T12:56:25;12.65;;;4.13;;
37267;SDS011;23154;52.542;13.362;2023-07-22T12:58:51;12.18;;;3.88;;
37267;SDS011;23154;52.542;13.362;2023-07-22T13:01:18;14.15;;;4.43;;
37267;SDS011;23154;52.542;13.362;2023-07-22T13:03:51;13.82;;;4.38;;
37267;SDS011;23154;52.542;13.362;2023-07-22T13:06:17;12.07;;;4.40;;
37267;SDS011;23154;52.542;13.362;2023-07-22T13:08:43;13.27;;;4.00;;
37267;SDS011;23154;52.542;13.362;2023-07-22T13:11:09;13.20;;;4.40;;
37267;SDS011;23154;52.542;13.362;2023-07-22T13:13:35;13.45;;;4.82;;
37267;SDS011;23154;52.542;13.362;2023-07-22T13:16:01;12.93;;;4.13;;
37267;SDS011;23154;52.542;13.362;2023-07-22T13:18:28;15.90;;;4.15;;
37267;SDS011;23154;52.542;13.362;2023-07-22T13:20:54;15.05;;;4.32;;
37267;SDS011;23154;52.542;13.362;2023-07-22T13:23:20;14.40;;;4.60;;
37267;SDS011;23154;52.542;13.362;2023-07-22T13:25:46;12.75;;;4.68;;
37267;SDS011;23154;52.542;13.362;2023-07-22T13:28:12;13.05;;;4.43;;
37267;SDS011;23154;52.542;13.362;2023-07-22T13:30:39;12.80;;;4.35;;
37267;SDS011;23154;52.542;13.362;2023-07-22T13:33:05;13.07;;;3.75;;
37267;SDS011;23154;52.542;13.362;2023-07-22T13:35:31;13.48;;;4.20;;
37267;SDS011;23154;52.542;13.362;2023-07-22T13:37:57;15.05;;;4.68;;
37267;SDS011;23154;52.542;13.362;2023-07-22T13:40:24;15.25;;;4.25;;
37267;SDS011;23154;52.542;13.362;2023-07-22T13:42:51;12.88;;;4.78;;
37267;SDS011;23154;52.542;13.362;2023-07-22T13:45:17;13.75;;;4.22;;
37267;SDS011;23154;52.542;13.362;2023-07-22T13:47:43;13.07;;;3.90;;
37267;SDS011;23154;52.542;13.362;2023-07-22T13:50:09;14.43;;;4.57;;
37267;SDS011;23154;52.542;13.362;2023-07-22T13:52:35;14.43;;;4.65;;
37267;SDS011;23154;52.542;13.362;2023-07-22T13:55:01;15.80;;;4.40;;
37267;SDS011;23154;52.542;13.362;2023-07-22T13:57:27;11.15;;;4.07;;
37267;SDS011;23154;52.542;13.362;2023-07-22T13:59:53;14.00;;;4.53;;
37267;SDS011;23154;52.542;13.362;2023-07-22T14:02:19;12.48;;;4.20;;
37267;SDS011;23154;52.542;13.362;2023-07-22T14:04:45;14.63;;;4.63;;
37267;SDS011;23154;52.542;13.362;2023-07-22T14:07:12;12.00;;;3.85;;
37267;SDS011;23154;52.542;13.362;2023-07-22T14:09:38;12.05;;;4.13;;
37267;SDS011;23154;52.542;13.362;2023-07-22T14:12:04;13.10;;;4.05;;
37267;SDS011;23154;52.542;13.362;2023-07-22T14:14:30;12.15;;;4.00;;
37267;SDS011;23154;52.542;13.362;2023-07-22T14:16:57;13.63;;;4.65;;
37267;SDS011;23154;52.542;13.362;2023-07-22T14:19:23;11.43;;;3.67;;
37267;SDS011;23154;52.542;13.362;2023-07-22T14:21:49;13.05;;;4.32;;
37267;SDS011;23154;52.542;13.362;2023-07-22T14:24:17;13.20;;;3.95;;
37267;SDS011;23154;52.542;13.362;2023-07-22T14:26:43;11.20;;;3.88;;
37267;SDS011;23154;52.542;13.362;2023-07-22T14:29:09;12.75;;;4.15;;
37267;SDS011;23154;52.542;13.362;2023-07-22T14:31:35;13.02;;;4.63;;